Current | Forecast
Updated: 5:30 AM JST on February 22, 2018
Observed at Tokyo, Japan
Temperature 37°F
Windchill 31°F
Humidity 87%
Dew Point 34°F
Wind NNE at 9 mph
Pressure 30.12 in (Steady)
Conditions Light Rain
Visibility 4.3 miles
UV 0 out of 16
Clouds (FEW) : 700 ft
Mostly Cloudy (BKN) : 1000 ft
Mostly Cloudy (BKN) : 1500 ft
Yesterday's Maximum 46°F
Yesterday's Minimum 41°F approx.
Yesterday's Heating Degree Days 21 approx.
Sunrise6:20 AM JST
Sunset5:29 PM JST
Moon Rise10:03 AM JST
Moon Set11:45 PM JST
Moon PhaseMoon Phase
Waxing Crescent
Raw METARMETAR RJTT 212030Z 03008KT 7000 -RA FEW007 BKN010 BKN015 03/01 Q1020 TEMPO 4000 -RASN BR FEW005 BKN008 RMK 1ST007 6ST010 7SC015 A3013


Monday
. High: 75° F.
Tuesday
. High: 75° F.
Wednesday
. High: 68° F.
Thursday
. High: 73° F.
Friday
. High: 75° F.
Saturday
. High: 77° F.
Sunday
. High: 73° F.
Monday
. High: 71° F.

Units: English | Metric

Find the Weather for any City, State or Zipcode, or Country:

U.S. State List | Severe Weather | Tropical Storms | Ski Conditions
United States | Canada | Central America | South America | Asia | Europe | Australia | Africa | Islands

Weather Underground

© Copyright 2018
The Weather Company, LLC